sensor_id;sensor_type;location;lat;lon;timestamp;P1;durP1;ratioP1;P2;durP2;ratioP2
74632;SDS011;63139;52.018;8.552;2023-03-21T00:02:15;15.88;;;7.43;;
74632;SDS011;63139;52.018;8.552;2023-03-21T00:04:43;17.40;;;7.13;;
74632;SDS011;63139;52.018;8.552;2023-03-21T00:07:18;15.63;;;7.32;;
74632;SDS011;63139;52.018;8.552;2023-03-21T00:09:46;17.83;;;8.40;;
74632;SDS011;63139;52.018;8.552;2023-03-21T00:12:14;13.45;;;7.03;;
74632;SDS011;63139;52.018;8.552;2023-03-21T00:14:42;12.07;;;6.35;;
74632;SDS011;63139;52.018;8.552;2023-03-21T00:17:11;15.38;;;6.55;;
74632;SDS011;63139;52.018;8.552;2023-03-21T00:19:41;15.20;;;7.13;;
74632;SDS011;63139;52.018;8.552;2023-03-21T00:22:10;15.73;;;7.32;;
74632;SDS011;63139;52.018;8.552;2023-03-21T00:24:37;19.63;;;8.13;;
74632;SDS011;63139;52.018;8.552;2023-03-21T00:27:05;14.32;;;7.20;;
74632;SDS011;63139;52.018;8.552;2023-03-21T00:29:53;13.38;;;6.80;;
74632;SDS011;63139;52.018;8.552;2023-03-21T00:32:23;10.95;;;6.35;;
74632;SDS011;63139;52.018;8.552;2023-03-21T00:34:51;14.45;;;6.95;;
74632;SDS011;63139;52.018;8.552;2023-03-21T00:37:39;14.45;;;6.82;;
74632;SDS011;63139;52.018;8.552;2023-03-21T00:40:09;12.90;;;7.00;;
74632;SDS011;63139;52.018;8.552;2023-03-21T00:42:51;11.63;;;5.57;;
74632;SDS011;63139;52.018;8.552;2023-03-21T00:45:19;10.85;;;6.15;;
74632;SDS011;63139;52.018;8.552;2023-03-21T00:47:48;13.77;;;6.95;;
74632;SDS011;63139;52.018;8.552;2023-03-21T00:50:16;16.88;;;7.88;;
74632;SDS011;63139;52.018;8.552;2023-03-21T00:52:44;15.05;;;7.65;;
74632;SDS011;63139;52.018;8.552;2023-03-21T00:55:12;19.30;;;9.02;;
74632;SDS011;63139;52.018;8.552;2023-03-21T00:57:41;20.85;;;9.20;;
74632;SDS011;63139;52.018;8.552;2023-03-21T01:00:17;17.58;;;8.43;;
74632;SDS011;63139;52.018;8.552;2023-03-21T01:02:45;24.80;;;10.45;;
74632;SDS011;63139;52.018;8.552;2023-03-21T01:05:44;16.02;;;7.85;;
74632;SDS011;63139;52.018;8.552;2023-03-21T01:08:30;14.93;;;8.48;;
74632;SDS011;63139;52.018;8.552;2023-03-21T01:11:15;16.77;;;9.18;;
74632;SDS011;63139;52.018;8.552;2023-03-21T01:13:46;18.67;;;8.43;;
74632;SDS011;63139;52.018;8.552;2023-03-21T01:16:25;16.10;;;8.05;;
74632;SDS011;63139;52.018;8.552;2023-03-21T01:18:53;19.23;;;8.65;;
74632;SDS011;63139;52.018;8.552;2023-03-21T01:21:23;17.40;;;9.25;;
74632;SDS011;63139;52.018;8.552;2023-03-21T01:23:51;15.68;;;8.55;;
74632;SDS011;63139;52.018;8.552;2023-03-21T01:26:19;18.17;;;9.38;;
74632;SDS011;63139;52.018;8.552;2023-03-21T01:28:47;20.98;;;9.60;;
74632;SDS011;63139;52.018;8.552;2023-03-21T01:31:16;21.98;;;9.73;;
74632;SDS011;63139;52.018;8.552;2023-03-21T01:33:44;19.95;;;9.40;;
74632;SDS011;63139;52.018;8.552;2023-03-21T01:36:15;17.67;;;8.73;;
74632;SDS011;63139;52.018;8.552;2023-03-21T01:38:50;16.63;;;9.57;;
74632;SDS011;63139;52.018;8.552;2023-03-21T01:41:19;23.02;;;8.52;;
74632;SDS011;63139;52.018;8.552;2023-03-21T01:44:12;17.13;;;8.85;;
74632;SDS011;63139;52.018;8.552;2023-03-21T01:46:43;17.92;;;9.55;;
74632;SDS011;63139;52.018;8.552;2023-03-21T01:49:44;21.65;;;10.02;;
74632;SDS011;63139;52.018;8.552;2023-03-21T01:52:35;16.52;;;8.05;;
74632;SDS011;63139;52.018;8.552;2023-03-21T01:58:07;21.83;;;10.65;;
74632;SDS011;63139;52.018;8.552;2023-03-21T02:00:56;17.48;;;9.02;;
74632;SDS011;63139;52.018;8.552;2023-03-21T02:03:33;19.60;;;10.20;;
74632;SDS011;63139;52.018;8.552;2023-03-21T02:06:19;19.92;;;10.75;;
74632;SDS011;63139;52.018;8.552;2023-03-21T02:09:01;20.90;;;10.20;;
74632;SDS011;63139;52.018;8.552;2023-03-21T02:11:35;18.35;;;9.85;;
74632;SDS011;63139;52.018;8.552;2023-03-21T02:14:04;20.27;;;11.20;;
74632;SDS011;63139;52.018;8.552;2023-03-21T02:16:50;20.75;;;10.88;;
74632;SDS011;63139;52.018;8.552;2023-03-21T02:19:30;17.23;;;9.13;;
74632;SDS011;63139;52.018;8.552;2023-03-21T02:22:43;16.77;;;9.07;;
74632;SDS011;63139;52.018;8.552;2023-03-21T02:25:28;18.98;;;9.82;;
74632;SDS011;63139;52.018;8.552;2023-03-21T02:28:12;19.67;;;10.55;;
74632;SDS011;63139;52.018;8.552;2023-03-21T02:31:00;20.83;;;10.00;;
74632;SDS011;63139;52.018;8.552;2023-03-21T02:36:47;24.92;;;10.90;;
74632;SDS011;63139;52.018;8.552;2023-03-21T02:39:25;19.50;;;10.40;;
74632;SDS011;63139;52.018;8.552;2023-03-21T02:42:01;22.70;;;10.82;;
74632;SDS011;63139;52.018;8.552;2023-03-21T02:44:34;26.13;;;11.98;;
74632;SDS011;63139;52.018;8.552;2023-03-21T02:47:09;26.58;;;12.27;;
74632;SDS011;63139;52.018;8.552;2023-03-21T02:49:41;29.90;;;12.50;;
74632;SDS011;63139;52.018;8.552;2023-03-21T02:52:15;24.95;;;11.73;;
74632;SDS011;63139;52.018;8.552;2023-03-21T02:55:04;20.63;;;11.27;;
74632;SDS011;63139;52.018;8.552;2023-03-21T02:57:44;20.80;;;11.90;;
74632;SDS011;63139;52.018;8.552;2023-03-21T03:00:19;17.92;;;9.57;;
74632;SDS011;63139;52.018;8.552;2023-03-21T03:02:49;28.77;;;11.50;;
74632;SDS011;63139;52.018;8.552;2023-03-21T03:05:34;26.02;;;11.88;;
74632;SDS011;63139;52.018;8.552;2023-03-21T03:08:12;25.10;;;12.82;;
74632;SDS011;63139;52.018;8.552;2023-03-21T03:11:07;23.83;;;11.77;;
74632;SDS011;63139;52.018;8.552;2023-03-21T03:13:50;31.10;;;14.90;;
74632;SDS011;63139;52.018;8.552;2023-03-21T03:16:50;25.65;;;13.07;;
74632;SDS011;63139;52.018;8.552;2023-03-21T03:19:29;23.40;;;12.40;;
74632;SDS011;63139;52.018;8.552;2023-03-21T03:22:12;24.88;;;12.32;;
74632;SDS011;63139;52.018;8.552;2023-03-21T03:24:45;32.40;;;15.10;;
74632;SDS011;63139;52.018;8.552;2023-03-21T03:27:23;24.63;;;12.90;;
74632;SDS011;63139;52.018;8.552;2023-03-21T03:29:56;32.55;;;17.13;;
74632;SDS011;63139;52.018;8.552;2023-03-21T03:32:27;26.60;;;14.00;;
74632;SDS011;63139;52.018;8.552;2023-03-21T03:35:02;30.38;;;13.10;;
74632;SDS011;63139;52.018;8.552;2023-03-21T03:37:32;33.28;;;14.70;;
74632;SDS011;63139;52.018;8.552;2023-03-21T03:40:06;28.85;;;14.52;;
74632;SDS011;63139;52.018;8.552;2023-03-21T03:42:44;27.92;;;12.93;;
74632;SDS011;63139;52.018;8.552;2023-03-21T03:45:22;28.15;;;13.55;;
74632;SDS011;63139;52.018;8.552;2023-03-21T03:47:56;28.10;;;13.88;;
74632;SDS011;63139;52.018;8.552;2023-03-21T03:50:35;29.50;;;12.45;;
74632;SDS011;63139;52.018;8.552;2023-03-21T03:53:12;29.67;;;12.80;;
74632;SDS011;63139;52.018;8.552;2023-03-21T03:55:48;31.38;;;12.82;;
74632;SDS011;63139;52.018;8.552;2023-03-21T03:58:19;22.88;;;11.95;;
74632;SDS011;63139;52.018;8.552;2023-03-21T04:00:54;25.10;;;11.55;;
74632;SDS011;63139;52.018;8.552;2023-03-21T04:03:22;28.73;;;11.77;;
74632;SDS011;63139;52.018;8.552;2023-03-21T04:05:51;22.77;;;10.52;;
74632;SDS011;63139;52.018;8.552;2023-03-21T04:08:19;23.63;;;10.85;;
74632;SDS011;63139;52.018;8.552;2023-03-21T04:10:53;25.08;;;11.15;;
74632;SDS011;63139;52.018;8.552;2023-03-21T04:13:21;21.67;;;10.52;;
74632;SDS011;63139;52.018;8.552;2023-03-21T04:16:03;21.65;;;9.68;;
74632;SDS011;63139;52.018;8.552;2023-03-21T04:18:32;22.48;;;9.93;;
74632;SDS011;63139;52.018;8.552;2023-03-21T04:21:00;19.67;;;9.90;;
74632;SDS011;63139;52.018;8.552;2023-03-21T04:23:29;24.98;;;10.55;;
74632;SDS011;63139;52.018;8.552;2023-03-21T04:25:58;25.30;;;10.68;;
74632;SDS011;63139;52.018;8.552;2023-03-21T04:28:36;24.23;;;10.48;;
74632;SDS011;63139;52.018;8.552;2023-03-21T04:31:25;17.27;;;9.73;;
74632;SDS011;63139;52.018;8.552;2023-03-21T04:34:05;19.05;;;9.95;;
74632;SDS011;63139;52.018;8.552;2023-03-21T04:36:36;16.17;;;9.32;;
74632;SDS011;63139;52.018;8.552;2023-03-21T04:39:08;20.05;;;10.07;;
74632;SDS011;63139;52.018;8.552;2023-03-21T04:41:41;19.38;;;9.00;;
74632;SDS011;63139;52.018;8.552;2023-03-21T04:44:10;19.90;;;11.05;;
74632;SDS011;63139;52.018;8.552;2023-03-21T04:46:39;23.30;;;9.93;;
74632;SDS011;63139;52.018;8.552;2023-03-21T04:49:08;17.08;;;9.85;;
74632;SDS011;63139;52.018;8.552;2023-03-21T04:51:36;18.73;;;10.23;;
74632;SDS011;63139;52.018;8.552;2023-03-21T04:54:08;22.17;;;9.98;;
74632;SDS011;63139;52.018;8.552;2023-03-21T04:56:41;21.85;;;9.80;;
74632;SDS011;63139;52.018;8.552;2023-03-21T04:59:11;20.92;;;9.50;;
74632;SDS011;63139;52.018;8.552;2023-03-21T05:01:40;19.65;;;8.93;;
74632;SDS011;63139;52.018;8.552;2023-03-21T05:04:09;19.48;;;9.30;;
74632;SDS011;63139;52.018;8.552;2023-03-21T05:06:40;18.42;;;9.55;;
74632;SDS011;63139;52.018;8.552;2023-03-21T05:09:09;19.92;;;9.27;;
74632;SDS011;63139;52.018;8.552;2023-03-21T05:11:38;19.70;;;9.95;;
74632;SDS011;63139;52.018;8.552;2023-03-21T05:14:09;18.48;;;9.50;;
74632;SDS011;63139;52.018;8.552;2023-03-21T05:16:41;26.48;;;11.57;;
74632;SDS011;63139;52.018;8.552;2023-03-21T05:19:10;20.15;;;10.73;;
74632;SDS011;63139;52.018;8.552;2023-03-21T05:21:40;18.35;;;9.38;;
74632;SDS011;63139;52.018;8.552;2023-03-21T05:24:14;18.75;;;8.93;;
74632;SDS011;63139;52.018;8.552;2023-03-21T05:26:44;25.20;;;11.20;;
74632;SDS011;63139;52.018;8.552;2023-03-21T05:29:18;21.50;;;11.18;;
74632;SDS011;63139;52.018;8.552;2023-03-21T05:32:01;22.90;;;11.77;;
74632;SDS011;63139;52.018;8.552;2023-03-21T05:34:29;18.13;;;8.70;;
74632;SDS011;63139;52.018;8.552;2023-03-21T05:36:58;19.45;;;10.10;;
74632;SDS011;63139;52.018;8.552;2023-03-21T05:39:38;18.48;;;10.27;;
74632;SDS011;63139;52.018;8.552;2023-03-21T05:42:11;17.67;;;8.48;;
74632;SDS011;63139;52.018;8.552;2023-03-21T05:44:41;23.45;;;9.50;;
74632;SDS011;63139;52.018;8.552;2023-03-21T05:47:10;20.05;;;10.02;;
74632;SDS011;63139;52.018;8.552;2023-03-21T05:49:43;15.70;;;8.80;;
74632;SDS011;63139;52.018;8.552;2023-03-21T05:52:13;20.30;;;9.20;;
74632;SDS011;63139;52.018;8.552;2023-03-21T05:54:41;19.55;;;10.20;;
74632;SDS011;63139;52.018;8.552;2023-03-21T05:57:09;15.30;;;7.95;;
74632;SDS011;63139;52.018;8.552;2023-03-21T05:59:50;18.00;;;8.65;;
74632;SDS011;63139;52.018;8.552;2023-03-21T06:02:18;23.40;;;11.23;;
74632;SDS011;63139;52.018;8.552;2023-03-21T06:04:47;22.08;;;9.20;;
74632;SDS011;63139;52.018;8.552;2023-03-21T06:07:19;33.33;;;12.98;;
74632;SDS011;63139;52.018;8.552;2023-03-21T06:09:47;33.50;;;13.52;;
74632;SDS011;63139;52.018;8.552;2023-03-21T06:12:16;27.50;;;12.65;;
74632;SDS011;63139;52.018;8.552;2023-03-21T06:15:05;22.25;;;11.30;;
74632;SDS011;63139;52.018;8.552;2023-03-21T06:17:52;18.20;;;8.95;;
74632;SDS011;63139;52.018;8.552;2023-03-21T06:20:20;16.13;;;9.43;;
74632;SDS011;63139;52.018;8.552;2023-03-21T06:22:51;15.57;;;8.30;;
74632;SDS011;63139;52.018;8.552;2023-03-21T06:25:19;16.67;;;9.38;;
74632;SDS011;63139;52.018;8.552;2023-03-21T06:27:47;19.40;;;9.05;;
74632;SDS011;63139;52.018;8.552;2023-03-21T06:30:17;15.73;;;8.77;;
74632;SDS011;63139;52.018;8.552;2023-03-21T06:33:11;16.95;;;8.07;;
74632;SDS011;63139;52.018;8.552;2023-03-21T06:35:41;20.50;;;9.00;;
74632;SDS011;63139;52.018;8.552;2023-03-21T06:38:09;19.08;;;8.95;;
74632;SDS011;63139;52.018;8.552;2023-03-21T06:40:37;15.85;;;8.75;;
74632;SDS011;63139;52.018;8.552;2023-03-21T06:43:05;15.68;;;8.10;;
74632;SDS011;63139;52.018;8.552;2023-03-21T06:45:35;16.02;;;8.05;;
74632;SDS011;63139;52.018;8.552;2023-03-21T06:48:04;13.90;;;7.70;;
74632;SDS011;63139;52.018;8.552;2023-03-21T06:50:43;16.65;;;8.13;;
74632;SDS011;63139;52.018;8.552;2023-03-21T06:53:14;18.17;;;8.13;;
74632;SDS011;63139;52.018;8.552;2023-03-21T06:56:01;19.35;;;9.93;;
74632;SDS011;63139;52.018;8.552;2023-03-21T06:58:30;20.48;;;10.15;;
74632;SDS011;63139;52.018;8.552;2023-03-21T07:01:00;15.88;;;7.57;;
74632;SDS011;63139;52.018;8.552;2023-03-21T07:03:33;19.42;;;9.10;;
74632;SDS011;63139;52.018;8.552;2023-03-21T07:06:03;14.98;;;8.23;;
74632;SDS011;63139;52.018;8.552;2023-03-21T07:08:33;15.57;;;8.18;;
74632;SDS011;63139;52.018;8.552;2023-03-21T07:11:02;17.13;;;9.45;;
74632;SDS011;63139;52.018;8.552;2023-03-21T07:13:31;20.77;;;10.30;;
74632;SDS011;63139;52.018;8.552;2023-03-21T07:16:04;12.75;;;7.97;;
74632;SDS011;63139;52.018;8.552;2023-03-21T07:18:33;18.90;;;9.48;;
74632;SDS011;63139;52.018;8.552;2023-03-21T07:21:01;17.20;;;8.85;;
74632;SDS011;63139;52.018;8.552;2023-03-21T07:23:29;17.33;;;8.80;;
74632;SDS011;63139;52.018;8.552;2023-03-21T07:25:57;18.58;;;10.10;;
74632;SDS011;63139;52.018;8.552;2023-03-21T07:28:24;16.38;;;8.23;;
74632;SDS011;63139;52.018;8.552;2023-03-21T07:30:53;24.38;;;9.15;;
74632;SDS011;63139;52.018;8.552;2023-03-21T07:33:25;23.60;;;10.93;;
74632;SDS011;63139;52.018;8.552;2023-03-21T07:35:57;19.13;;;11.18;;
74632;SDS011;63139;52.018;8.552;2023-03-21T07:38:25;17.83;;;8.73;;
74632;SDS011;63139;52.018;8.552;2023-03-21T07:40:57;15.93;;;9.23;;
74632;SDS011;63139;52.018;8.552;2023-03-21T07:43:28;17.00;;;8.55;;
74632;SDS011;63139;52.018;8.552;2023-03-21T07:45:57;13.93;;;8.35;;
74632;SDS011;63139;52.018;8.552;2023-03-21T07:48:27;18.67;;;9.50;;
74632;SDS011;63139;52.018;8.552;2023-03-21T07:50:55;17.02;;;9.07;;
74632;SDS011;63139;52.018;8.552;2023-03-21T07:53:23;21.85;;;10.45;;
74632;SDS011;63139;52.018;8.552;2023-03-21T07:55:51;19.30;;;8.70;;
74632;SDS011;63139;52.018;8.552;2023-03-21T07:58:21;23.05;;;10.00;;
74632;SDS011;63139;52.018;8.552;2023-03-21T08:00:50;17.80;;;9.50;;
74632;SDS011;63139;52.018;8.552;2023-03-21T08:03:18;17.40;;;9.02;;
74632;SDS011;63139;52.018;8.552;2023-03-21T08:05:48;18.35;;;7.80;;
74632;SDS011;63139;52.018;8.552;2023-03-21T08:08:15;21.30;;;9.60;;
74632;SDS011;63139;52.018;8.552;2023-03-21T08:10:43;16.75;;;9.30;;
74632;SDS011;63139;52.018;8.552;2023-03-21T08:13:11;15.65;;;8.05;;
74632;SDS011;63139;52.018;8.552;2023-03-21T08:15:39;15.60;;;8.27;;
74632;SDS011;63139;52.018;8.552;2023-03-21T08:18:07;20.27;;;8.90;;
74632;SDS011;63139;52.018;8.552;2023-03-21T08:20:36;17.88;;;8.68;;
74632;SDS011;63139;52.018;8.552;2023-03-21T08:23:05;16.40;;;8.35;;
74632;SDS011;63139;52.018;8.552;2023-03-21T08:25:33;17.40;;;9.15;;
74632;SDS011;63139;52.018;8.552;2023-03-21T08:28:02;16.70;;;8.10;;
74632;SDS011;63139;52.018;8.552;2023-03-21T08:30:30;16.45;;;8.75;;
74632;SDS011;63139;52.018;8.552;2023-03-21T08:32:58;18.15;;;8.57;;
74632;SDS011;63139;52.018;8.552;2023-03-21T08:35:27;18.90;;;9.07;;
74632;SDS011;63139;52.018;8.552;2023-03-21T08:37:56;18.30;;;9.43;;
74632;SDS011;63139;52.018;8.552;2023-03-21T08:40:25;17.88;;;9.55;;
74632;SDS011;63139;52.018;8.552;2023-03-21T08:42:53;20.13;;;9.18;;
74632;SDS011;63139;52.018;8.552;2023-03-21T08:45:21;17.08;;;8.45;;
74632;SDS011;63139;52.018;8.552;2023-03-21T08:47:50;17.75;;;8.77;;
74632;SDS011;63139;52.018;8.552;2023-03-21T08:50:18;18.70;;;8.95;;
74632;SDS011;63139;52.018;8.552;2023-03-21T08:52:47;15.60;;;7.80;;
74632;SDS011;63139;52.018;8.552;2023-03-21T08:55:16;19.65;;;8.88;;
74632;SDS011;63139;52.018;8.552;2023-03-21T08:57:46;16.77;;;8.57;;
74632;SDS011;63139;52.018;8.552;2023-03-21T09:00:15;13.50;;;8.10;;
74632;SDS011;63139;52.018;8.552;2023-03-21T09:02:44;19.67;;;8.82;;
74632;SDS011;63139;52.018;8.552;2023-03-21T09:05:13;17.48;;;9.02;;
74632;SDS011;63139;52.018;8.552;2023-03-21T09:07:42;15.63;;;7.72;;
74632;SDS011;63139;52.018;8.552;2023-03-21T09:10:11;15.55;;;8.20;;
74632;SDS011;63139;52.018;8.552;2023-03-21T09:12:48;21.50;;;9.02;;
74632;SDS011;63139;52.018;8.552;2023-03-21T09:15:18;19.08;;;8.82;;
74632;SDS011;63139;52.018;8.552;2023-03-21T09:17:46;17.05;;;8.30;;
74632;SDS011;63139;52.018;8.552;2023-03-21T09:20:18;23.13;;;9.55;;
74632;SDS011;63139;52.018;8.552;2023-03-21T09:22:46;17.05;;;8.43;;
74632;SDS011;63139;52.018;8.552;2023-03-21T09:25:15;18.08;;;8.35;;
74632;SDS011;63139;52.018;8.552;2023-03-21T09:27:44;21.63;;;8.50;;
74632;SDS011;63139;52.018;8.552;2023-03-21T09:30:14;18.73;;;9.02;;
74632;SDS011;63139;52.018;8.552;2023-03-21T09:32:43;18.55;;;8.05;;
74632;SDS011;63139;52.018;8.552;2023-03-21T09:35:14;17.08;;;8.18;;
74632;SDS011;63139;52.018;8.552;2023-03-21T09:37:43;18.23;;;9.07;;
74632;SDS011;63139;52.018;8.552;2023-03-21T09:40:14;15.27;;;8.57;;
74632;SDS011;63139;52.018;8.552;2023-03-21T09:42:48;20.52;;;8.77;;
74632;SDS011;63139;52.018;8.552;2023-03-21T09:45:28;19.60;;;8.95;;
74632;SDS011;63139;52.018;8.552;2023-03-21T09:48:04;19.48;;;8.75;;
74632;SDS011;63139;52.018;8.552;2023-03-21T09:50:42;17.27;;;9.07;;
74632;SDS011;63139;52.018;8.552;2023-03-21T09:53:10;16.85;;;8.20;;
74632;SDS011;63139;52.018;8.552;2023-03-21T09:55:46;17.63;;;8.83;;
74632;SDS011;63139;52.018;8.552;2023-03-21T09:58:18;12.77;;;7.70;;
74632;SDS011;63139;52.018;8.552;2023-03-21T10:00:56;19.65;;;9.82;;
74632;SDS011;63139;52.018;8.552;2023-03-21T10:03:31;18.15;;;8.95;;
74632;SDS011;63139;52.018;8.552;2023-03-21T10:06:02;16.20;;;7.90;;
74632;SDS011;63139;52.018;8.552;2023-03-21T10:08:34;19.20;;;9.77;;
74632;SDS011;63139;52.018;8.552;2023-03-21T10:11:09;14.60;;;8.30;;
74632;SDS011;63139;52.018;8.552;2023-03-21T10:13:41;17.13;;;8.13;;
74632;SDS011;63139;52.018;8.552;2023-03-21T10:16:15;12.15;;;7.93;;
74632;SDS011;63139;52.018;8.552;2023-03-21T10:18:46;14.23;;;7.38;;
74632;SDS011;63139;52.018;8.552;2023-03-21T10:21:17;14.30;;;8.75;;
74632;SDS011;63139;52.018;8.552;2023-03-21T10:24:08;16.02;;;8.73;;
74632;SDS011;63139;52.018;8.552;2023-03-21T10:26:37;19.63;;;9.18;;
74632;SDS011;63139;52.018;8.552;2023-03-21T10:29:06;15.07;;;9.18;;
74632;SDS011;63139;52.018;8.552;2023-03-21T10:31:37;11.00;;;6.90;;
74632;SDS011;63139;52.018;8.552;2023-03-21T10:34:08;12.15;;;7.07;;
74632;SDS011;63139;52.018;8.552;2023-03-21T10:36:42;14.20;;;7.78;;
74632;SDS011;63139;52.018;8.552;2023-03-21T10:39:13;14.52;;;8.15;;
74632;SDS011;63139;52.018;8.552;2023-03-21T10:41:47;13.93;;;6.93;;
74632;SDS011;63139;52.018;8.552;2023-03-21T10:44:16;11.50;;;6.72;;
74632;SDS011;63139;52.018;8.552;2023-03-21T10:46:52;13.13;;;7.25;;
74632;SDS011;63139;52.018;8.552;2023-03-21T10:49:22;12.25;;;7.28;;
74632;SDS011;63139;52.018;8.552;2023-03-21T10:51:52;13.52;;;8.38;;
74632;SDS011;63139;52.018;8.552;2023-03-21T10:54:25;12.98;;;7.75;;
74632;SDS011;63139;52.018;8.552;2023-03-21T10:56:55;14.23;;;8.50;;
74632;SDS011;63139;52.018;8.552;2023-03-21T10:59:25;13.23;;;7.60;;
74632;SDS011;63139;52.018;8.552;2023-03-21T11:04:32;15.65;;;7.65;;
74632;SDS011;63139;52.018;8.552;2023-03-21T11:07:04;13.73;;;7.13;;
74632;SDS011;63139;52.018;8.552;2023-03-21T11:09:43;13.05;;;6.90;;
74632;SDS011;63139;52.018;8.552;2023-03-21T11:12:13;16.52;;;7.22;;
74632;SDS011;63139;52.018;8.552;2023-03-21T11:14:43;13.98;;;7.55;;
74632;SDS011;63139;52.018;8.552;2023-03-21T11:17:21;12.73;;;6.65;;
74632;SDS011;63139;52.018;8.552;2023-03-21T11:19:50;10.23;;;6.25;;
74632;SDS011;63139;52.018;8.552;2023-03-21T11:22:20;12.80;;;6.20;;
74632;SDS011;63139;52.018;8.552;2023-03-21T11:24:50;13.63;;;7.43;;
74632;SDS011;63139;52.018;8.552;2023-03-21T11:27:20;13.15;;;7.25;;
74632;SDS011;63139;52.018;8.552;2023-03-21T11:29:48;13.90;;;6.93;;
74632;SDS011;63139;52.018;8.552;2023-03-21T11:32:23;11.25;;;6.70;;
74632;SDS011;63139;52.018;8.552;2023-03-21T11:34:55;12.75;;;7.80;;
74632;SDS011;63139;52.018;8.552;2023-03-21T11:37:26;11.32;;;6.90;;
74632;SDS011;63139;52.018;8.552;2023-03-21T11:40:04;12.35;;;7.10;;
74632;SDS011;63139;52.018;8.552;2023-03-21T11:42:39;8.63;;;5.95;;
74632;SDS011;63139;52.018;8.552;2023-03-21T11:45:10;10.07;;;6.05;;
74632;SDS011;63139;52.018;8.552;2023-03-21T11:47:41;11.00;;;6.28;;
74632;SDS011;63139;52.018;8.552;2023-03-21T11:50:13;9.10;;;6.30;;
74632;SDS011;63139;52.018;8.552;2023-03-21T11:52:47;10.65;;;6.50;;
74632;SDS011;63139;52.018;8.552;2023-03-21T11:55:29;12.85;;;6.25;;
74632;SDS011;63139;52.018;8.552;2023-03-21T12:00:59;11.20;;;6.85;;
74632;SDS011;63139;52.018;8.552;2023-03-21T12:03:44;12.13;;;6.85;;
74632;SDS011;63139;52.018;8.552;2023-03-21T12:06:21;14.88;;;6.93;;
74632;SDS011;63139;52.018;8.552;2023-03-21T12:09:02;8.77;;;5.22;;
74632;SDS011;63139;52.018;8.552;2023-03-21T12:11:42;11.95;;;6.90;;
74632;SDS011;63139;52.018;8.552;2023-03-21T12:14:20;12.93;;;7.22;;
74632;SDS011;63139;52.018;8.552;2023-03-21T12:19:41;10.27;;;5.43;;
74632;SDS011;63139;52.018;8.552;2023-03-21T12:22:18;9.00;;;5.57;;
74632;SDS011;63139;52.018;8.552;2023-03-21T12:24:54;9.65;;;5.82;;
74632;SDS011;63139;52.018;8.552;2023-03-21T12:27:27;13.60;;;6.13;;
74632;SDS011;63139;52.018;8.552;2023-03-21T12:30:18;9.52;;;5.93;;
74632;SDS011;63139;52.018;8.552;2023-03-21T12:33:18;9.70;;;6.10;;
74632;SDS011;63139;52.018;8.552;2023-03-21T12:36:05;11.27;;;5.80;;
74632;SDS011;63139;52.018;8.552;2023-03-21T12:38:59;8.23;;;5.82;;
74632;SDS011;63139;52.018;8.552;2023-03-21T12:41:38;8.13;;;5.05;;
74632;SDS011;63139;52.018;8.552;2023-03-21T12:44:10;10.88;;;6.20;;
74632;SDS011;63139;52.018;8.552;2023-03-21T12:46:42;10.68;;;5.90;;
74632;SDS011;63139;52.018;8.552;2023-03-21T12:49:12;8.32;;;5.20;;
74632;SDS011;63139;52.018;8.552;2023-03-21T12:51:46;9.07;;;4.97;;
74632;SDS011;63139;52.018;8.552;2023-03-21T12:54:20;8.00;;;5.25;;
74632;SDS011;63139;52.018;8.552;2023-03-21T12:56:53;9.43;;;5.35;;
74632;SDS011;63139;52.018;8.552;2023-03-21T12:59:29;14.57;;;6.63;;
74632;SDS011;63139;52.018;8.552;2023-03-21T13:02:05;11.40;;;4.90;;
74632;SDS011;63139;52.018;8.552;2023-03-21T13:04:45;7.93;;;4.90;;
74632;SDS011;63139;52.018;8.552;2023-03-21T13:07:19;10.50;;;5.47;;
74632;SDS011;63139;52.018;8.552;2023-03-21T13:09:50;8.38;;;5.03;;
74632;SDS011;63139;52.018;8.552;2023-03-21T13:12:25;8.05;;;4.80;;
74632;SDS011;63139;52.018;8.552;2023-03-21T13:15:10;8.68;;;4.53;;
74632;SDS011;63139;52.018;8.552;2023-03-21T13:17:51;9.57;;;5.28;;
74632;SDS011;63139;52.018;8.552;2023-03-21T13:20:28;7.93;;;4.70;;
74632;SDS011;63139;52.018;8.552;2023-03-21T13:23:05;7.55;;;4.93;;
74632;SDS011;63139;52.018;8.552;2023-03-21T13:25:37;8.98;;;4.32;;
74632;SDS011;63139;52.018;8.552;2023-03-21T13:28:11;8.45;;;5.30;;
74632;SDS011;63139;52.018;8.552;2023-03-21T13:30:44;10.63;;;4.53;;
74632;SDS011;63139;52.018;8.552;2023-03-21T13:33:14;6.35;;;4.13;;
74632;SDS011;63139;52.018;8.552;2023-03-21T13:35:53;10.63;;;4.75;;
74632;SDS011;63139;52.018;8.552;2023-03-21T13:38:32;7.80;;;4.55;;
74632;SDS011;63139;52.018;8.552;2023-03-21T13:41:06;7.72;;;4.10;;
74632;SDS011;63139;52.018;8.552;2023-03-21T13:43:40;8.25;;;4.22;;
74632;SDS011;63139;52.018;8.552;2023-03-21T13:46:10;7.47;;;4.20;;
74632;SDS011;63139;52.018;8.552;2023-03-21T13:48:41;7.35;;;4.43;;
74632;SDS011;63139;52.018;8.552;2023-03-21T13:51:43;8.00;;;4.22;;
74632;SDS011;63139;52.018;8.552;2023-03-21T13:54:18;5.18;;;3.80;;
74632;SDS011;63139;52.018;8.552;2023-03-21T13:56:56;5.97;;;3.95;;
74632;SDS011;63139;52.018;8.552;2023-03-21T13:59:40;8.80;;;4.00;;
74632;SDS011;63139;52.018;8.552;2023-03-21T14:02:23;5.63;;;3.88;;
74632;SDS011;63139;52.018;8.552;2023-03-21T14:04:56;7.43;;;4.80;;
74632;SDS011;63139;52.018;8.552;2023-03-21T14:07:32;5.57;;;3.95;;
74632;SDS011;63139;52.018;8.552;2023-03-21T14:10:04;6.68;;;4.50;;
74632;SDS011;63139;52.018;8.552;2023-03-21T14:12:43;8.43;;;4.32;;
74632;SDS011;63139;52.018;8.552;2023-03-21T14:15:13;9.23;;;4.25;;
74632;SDS011;63139;52.018;8.552;2023-03-21T14:17:48;5.43;;;3.53;;
74632;SDS011;63139;52.018;8.552;2023-03-21T14:20:20;6.60;;;4.10;;
74632;SDS011;63139;52.018;8.552;2023-03-21T14:22:50;6.63;;;3.97;;
74632;SDS011;63139;52.018;8.552;2023-03-21T14:25:20;7.32;;;3.88;;
74632;SDS011;63139;52.018;8.552;2023-03-21T14:27:54;6.00;;;3.95;;
74632;SDS011;63139;52.018;8.552;2023-03-21T14:30:25;7.40;;;4.10;;
74632;SDS011;63139;52.018;8.552;2023-03-21T14:32:57;5.22;;;3.97;;
74632;SDS011;63139;52.018;8.552;2023-03-21T14:35:27;7.43;;;4.00;;
74632;SDS011;63139;52.018;8.552;2023-03-21T14:37:59;7.95;;;4.28;;
74632;SDS011;63139;52.018;8.552;2023-03-21T14:40:29;6.07;;;4.13;;
74632;SDS011;63139;52.018;8.552;2023-03-21T14:42:56;5.78;;;3.47;;
74632;SDS011;63139;52.018;8.552;2023-03-21T14:45:30;4.60;;;3.35;;
74632;SDS011;63139;52.018;8.552;2023-03-21T14:48:02;8.68;;;4.38;;
74632;SDS011;63139;52.018;8.552;2023-03-21T14:50:33;5.10;;;4.00;;
74632;SDS011;63139;52.018;8.552;2023-03-21T14:53:06;5.53;;;3.50;;
74632;SDS011;63139;52.018;8.552;2023-03-21T14:55:41;6.20;;;3.78;;
74632;SDS011;63139;52.018;8.552;2023-03-21T14:58:11;5.97;;;3.78;;
74632;SDS011;63139;52.018;8.552;2023-03-21T15:00:40;6.28;;;3.50;;
74632;SDS011;63139;52.018;8.552;2023-03-21T15:03:09;6.85;;;3.42;;
74632;SDS011;63139;52.018;8.552;2023-03-21T15:05:39;4.55;;;3.55;;
74632;SDS011;63139;52.018;8.552;2023-03-21T15:08:11;7.82;;;3.67;;
74632;SDS011;63139;52.018;8.552;2023-03-21T15:10:49;6.55;;;3.63;;
74632;SDS011;63139;52.018;8.552;2023-03-21T15:13:32;4.55;;;3.25;;
74632;SDS011;63139;52.018;8.552;2023-03-21T15:16:03;7.35;;;3.60;;
74632;SDS011;63139;52.018;8.552;2023-03-21T15:18:31;9.32;;;4.10;;
74632;SDS011;63139;52.018;8.552;2023-03-21T15:21:02;7.53;;;3.00;;
74632;SDS011;63139;52.018;8.552;2023-03-21T15:23:35;5.90;;;3.10;;
74632;SDS011;63139;52.018;8.552;2023-03-21T15:26:11;5.72;;;2.97;;